createdAt,value
2019-05-23T00:03:40.026Z,3.83
2019-05-23T00:08:45.879Z,3.90
2019-05-23T00:13:52.255Z,4.37
2019-05-23T00:18:57.258Z,3.70
2019-05-23T00:24:04.199Z,5.17
2019-05-23T00:29:10.961Z,5.40
2019-05-23T00:34:15.286Z,5.20
2019-05-23T00:39:20.064Z,6.10
2019-05-23T00:44:25.243Z,5.60
2019-05-23T00:49:30.826Z,6.43
2019-05-23T00:54:35.459Z,5.50
2019-05-23T00:59:40.342Z,6.40
2019-05-23T01:04:44.791Z,6.07
2019-05-23T01:09:49.679Z,6.33
2019-05-23T01:14:54.499Z,4.67
2019-05-23T01:20:00.070Z,5.07
2019-05-23T01:25:04.539Z,5.50
2019-05-23T01:30:12.758Z,5.60
2019-05-23T01:35:20.221Z,4.80
2019-05-23T01:40:25.101Z,4.70
2019-05-23T01:45:30.501Z,4.70
2019-05-23T01:50:34.972Z,5.03
2019-05-23T01:55:38.932Z,4.77
2019-05-23T02:00:44.258Z,4.00
2019-05-23T02:05:48.200Z,4.60
2019-05-23T02:10:52.583Z,4.97
2019-05-23T02:15:57.897Z,4.40
2019-05-23T02:21:02.096Z,4.93
2019-05-23T02:26:07.242Z,4.20
2019-05-23T02:31:12.217Z,5.00
2019-05-23T02:36:16.564Z,5.03
2019-05-23T02:41:46.404Z,4.77
2019-05-23T02:47:22.284Z,3.77
2019-05-23T02:52:42.289Z,4.63
2019-05-23T02:57:47.700Z,5.30
2019-05-23T03:02:54.625Z,5.10
2019-05-23T03:08:00.552Z,4.70
2019-05-23T03:13:06.372Z,4.93
2019-05-23T03:18:13.127Z,4.90
2019-05-23T03:23:17.827Z,4.93
2019-05-23T03:28:25.955Z,5.10
2019-05-23T03:33:31.911Z,5.07
2019-05-23T03:38:37.183Z,5.60
2019-05-23T03:43:42.843Z,5.60
2019-05-23T03:48:47.588Z,6.17
2019-05-23T03:53:51.950Z,5.47
2019-05-23T03:58:56.767Z,6.10
2019-05-23T04:04:02.158Z,5.50
2019-05-23T04:09:07.876Z,7.10
2019-05-23T04:14:12.272Z,6.30
2019-05-23T04:19:16.897Z,6.33
2019-05-23T04:24:21.141Z,6.30
2019-05-23T04:29:25.799Z,6.10
2019-05-23T04:34:30.850Z,5.83
2019-05-23T04:39:35.143Z,6.00
2019-05-23T04:44:43.818Z,6.50
2019-05-23T04:49:45.766Z,5.70
2019-05-23T04:54:50.449Z,5.30
2019-05-23T04:59:55.264Z,5.73
2019-05-23T05:04:59.811Z,6.77
2019-05-23T05:10:04.690Z,5.63
2019-05-23T05:15:09.703Z,5.30
2019-05-23T05:20:14.294Z,6.73
2019-05-23T05:25:18.294Z,5.93
2019-05-23T05:30:22.358Z,6.07
2019-05-23T05:35:27.234Z,4.87
2019-05-23T05:40:31.486Z,5.17
2019-05-23T05:45:35.411Z,5.33
2019-05-23T05:50:39.743Z,5.87
2019-05-23T05:55:44.514Z,5.77
2019-05-23T06:00:58.843Z,6.53
2019-05-23T06:06:17.039Z,6.37
2019-05-23T06:11:21.437Z,6.27
2019-05-23T06:16:25.859Z,5.90
2019-05-23T06:21:30.510Z,6.00
2019-05-23T06:26:34.796Z,6.70
2019-05-23T06:31:40.122Z,5.90
2019-05-23T06:36:44.703Z,6.10
2019-05-23T06:41:48.758Z,5.33
2019-05-23T06:46:53.087Z,5.10
2019-05-23T06:51:57.603Z,5.77
2019-05-23T06:57:01.653Z,5.30
2019-05-23T07:02:05.708Z,5.47
2019-05-23T07:07:11.499Z,4.80
2019-05-23T07:12:15.490Z,4.70
2019-05-23T07:17:21.510Z,5.50
2019-05-23T07:22:27.597Z,5.10
2019-05-23T07:27:32.126Z,5.50
2019-05-23T07:32:36.180Z,6.20
2019-05-23T07:37:40.418Z,5.43
2019-05-23T07:42:45.031Z,5.63
2019-05-23T07:47:49.551Z,5.87
2019-05-23T07:52:56.620Z,5.50
2019-05-23T07:58:02.757Z,5.10
2019-05-23T08:03:09.755Z,5.60
2019-05-23T08:08:13.691Z,5.50
2019-05-23T08:13:17.755Z,5.83
2019-05-23T08:18:22.174Z,6.77
2019-05-23T08:23:26.447Z,8.70
2019-05-23T08:28:31.120Z,12.20
2019-05-23T08:33:36.171Z,11.47
2019-05-23T08:38:40.934Z,14.63
2019-05-23T08:43:45.176Z,15.00
2019-05-23T08:48:49.266Z,14.70
2019-05-23T08:53:53.401Z,14.53
2019-05-23T08:58:57.597Z,22.63
2019-05-23T09:04:01.895Z,22.20
2019-05-23T09:09:27.915Z,18.27
2019-05-23T09:14:13.768Z,16.40
2019-05-23T09:19:18.025Z,16.43
2019-05-23T09:24:22.018Z,13.13
2019-05-23T09:29:26.165Z,11.90
2019-05-23T09:34:30.565Z,16.07
2019-05-23T09:39:36.384Z,15.00
2019-05-23T09:44:40.370Z,16.40
2019-05-23T09:49:53.908Z,15.17
2019-05-23T09:54:50.021Z,13.30
2019-05-23T09:59:56.885Z,15.20
2019-05-23T10:05:00.161Z,12.03
2019-05-23T10:10:04.920Z,16.37
2019-05-23T10:15:14.573Z,10.83
2019-05-23T10:20:20.418Z,10.30
2019-05-23T10:25:24.279Z,8.87
2019-05-23T10:30:29.217Z,8.50
2019-05-23T10:35:33.717Z,7.47
2019-05-23T10:40:38.624Z,6.43
2019-05-23T10:45:42.945Z,6.90
2019-05-23T10:50:47.414Z,7.60
2019-05-23T10:55:51.607Z,7.63
2019-05-23T11:00:56.155Z,9.40
2019-05-23T11:06:14.923Z,5.93
2019-05-23T11:11:07.313Z,5.93
2019-05-23T11:16:11.620Z,5.97
2019-05-23T11:21:15.542Z,5.60
2019-05-23T11:26:19.850Z,9.70
2019-05-23T11:31:24.238Z,5.93
2019-05-23T11:36:35.531Z,8.33
2019-05-23T11:41:34.545Z,6.80
2019-05-23T11:46:39.443Z,6.73
2019-05-23T11:51:44.023Z,5.90
2019-05-23T11:56:48.788Z,5.33
2019-05-23T12:02:07.345Z,6.30
2019-05-23T12:07:16.218Z,5.20
2019-05-23T12:12:20.667Z,5.40
2019-05-23T12:17:26.427Z,5.97
2019-05-23T12:22:30.672Z,6.20
2019-05-23T12:27:35.356Z,6.73
2019-05-23T12:32:40.232Z,6.50
2019-05-23T12:37:44.216Z,6.00
2019-05-23T12:42:48.573Z,7.00
2019-05-23T12:48:06.468Z,6.13
2019-05-23T12:53:12.812Z,6.70
2019-05-23T12:58:18.697Z,6.90
2019-05-23T13:03:23.909Z,4.73
2019-05-23T13:08:28.607Z,5.30
2019-05-23T13:13:32.530Z,6.30
2019-05-23T13:18:36.664Z,4.90
2019-05-23T13:23:40.951Z,5.30
2019-05-23T13:28:45.336Z,21.93
2019-05-23T13:33:49.328Z,47.80
2019-05-23T13:38:53.887Z,40.70
2019-05-23T13:43:58.128Z,53.70
2019-05-23T13:49:02.493Z,63.47
2019-05-23T13:54:06.799Z,60.90
2019-05-23T13:59:10.890Z,56.23
2019-05-23T14:04:15.493Z,46.63
2019-05-23T14:09:20.431Z,41.80
2019-05-23T14:14:24.523Z,37.90
2019-05-23T14:19:29.636Z,37.20
2019-05-23T14:24:37.671Z,31.77
2019-05-23T14:29:39.733Z,32.53
2019-05-23T14:34:44.290Z,30.33
2019-05-23T14:39:51.676Z,28.00
2019-05-23T14:44:55.819Z,27.33
2019-05-23T14:50:20.499Z,22.93
2019-05-23T14:55:24.833Z,23.30
2019-05-23T15:00:29.458Z,23.30
2019-05-23T15:05:34.415Z,19.03
2019-05-23T15:10:38.428Z,11.67
2019-05-23T15:15:43.235Z,11.77
2019-05-23T15:20:47.662Z,12.37
2019-05-23T15:25:51.592Z,12.50
2019-05-23T15:30:55.470Z,18.10
2019-05-23T15:35:59.765Z,34.50
2019-05-23T15:41:04.467Z,35.87
2019-05-23T15:46:08.807Z,31.23
2019-05-23T15:51:15.495Z,22.93
2019-05-23T15:56:39.057Z,21.23
2019-05-23T16:01:49.127Z,18.70
2019-05-23T16:06:53.429Z,18.47
2019-05-23T16:11:57.555Z,15.23
2019-05-23T16:17:02.280Z,12.00
2019-05-23T16:22:06.812Z,11.57
2019-05-23T16:27:12.370Z,11.13
2019-05-23T16:32:16.732Z,10.50
2019-05-23T16:37:21.078Z,10.37
2019-05-23T16:42:25.145Z,11.00
2019-05-23T16:47:29.654Z,10.33
2019-05-23T16:52:34.294Z,9.10
2019-05-23T16:57:44.468Z,9.20
2019-05-23T17:03:13.569Z,9.40
2019-05-23T17:08:36.457Z,9.70
2019-05-23T17:13:45.895Z,10.17
2019-05-23T17:18:55.478Z,10.73
2019-05-23T17:24:18.052Z,18.40
2019-05-23T17:29:30.480Z,18.00
2019-05-23T17:34:34.577Z,15.60
2019-05-23T17:39:40.233Z,13.23
2019-05-23T17:44:44.377Z,13.10
2019-05-23T17:49:48.734Z,10.40
2019-05-23T17:54:52.910Z,9.67
2019-05-23T17:59:57.554Z,9.17
2019-05-23T18:05:01.893Z,9.97
2019-05-23T18:10:07.072Z,8.57
2019-05-23T18:15:13.399Z,9.50
2019-05-23T18:20:17.890Z,8.30
2019-05-23T18:25:22.711Z,8.97
2019-05-23T18:30:45.991Z,8.60
2019-05-23T18:35:52.279Z,8.37
2019-05-23T18:41:04.135Z,7.93
2019-05-23T18:46:04.668Z,7.70
2019-05-23T18:51:08.518Z,8.07
2019-05-23T18:56:12.484Z,7.63
2019-05-23T19:01:22.664Z,7.33
2019-05-23T19:06:27.402Z,6.60
2019-05-23T19:11:31.289Z,6.80
2019-05-23T19:16:35.677Z,7.00
2019-05-23T19:21:40.083Z,6.07
2019-05-23T19:26:45.410Z,6.63
2019-05-23T19:31:49.577Z,6.93
2019-05-23T19:36:53.422Z,6.20
2019-05-23T19:41:57.360Z,6.37
2019-05-23T19:47:01.709Z,5.60
2019-05-23T19:52:06.837Z,6.20
2019-05-23T19:57:10.767Z,6.60
2019-05-23T20:02:37.455Z,5.83
2019-05-23T20:07:41.671Z,6.07
2019-05-23T20:12:45.683Z,5.93
2019-05-23T20:17:51.716Z,5.77
2019-05-23T20:22:56.470Z,5.83
2019-05-23T20:28:00.411Z,6.10
2019-05-23T20:33:04.672Z,5.57
2019-05-23T20:38:08.733Z,4.80
2019-05-23T20:43:12.944Z,4.90
2019-05-23T20:48:17.468Z,5.27
2019-05-23T20:53:21.463Z,5.00
2019-05-23T20:58:26.569Z,4.77
2019-05-23T21:03:34.687Z,5.17
2019-05-23T21:08:37.400Z,4.60
2019-05-23T21:13:42.036Z,4.67
2019-05-23T21:18:49.611Z,5.20
2019-05-23T21:23:56.678Z,4.60
2019-05-23T21:28:57.648Z,4.40
2019-05-23T21:34:01.937Z,4.87
2019-05-23T21:39:09.635Z,4.60
2019-05-23T21:44:13.878Z,4.10
2019-05-23T21:49:17.926Z,4.70
2019-05-23T21:54:21.803Z,4.53
2019-05-23T21:59:26.072Z,4.77
2019-05-23T22:04:55.324Z,3.73
2019-05-23T22:09:59.359Z,4.20
2019-05-23T22:15:04.673Z,4.07
2019-05-23T22:20:08.686Z,3.50
2019-05-23T22:25:15.915Z,3.07
2019-05-23T22:30:19.948Z,3.50
2019-05-23T22:35:24.580Z,3.77
2019-05-23T22:40:28.657Z,3.60
2019-05-23T22:45:33.259Z,3.60
2019-05-23T22:50:37.311Z,3.70
2019-05-23T22:55:41.267Z,3.63
2019-05-23T23:00:47.872Z,4.20
2019-05-23T23:05:51.891Z,4.20
2019-05-23T23:10:55.924Z,3.67
2019-05-23T23:16:00.185Z,4.13
2019-05-23T23:21:04.623Z,3.33
2019-05-23T23:26:09.179Z,3.50
2019-05-23T23:31:13.608Z,4.20
2019-05-23T23:36:17.535Z,3.70
2019-05-23T23:41:21.460Z,3.53
2019-05-23T23:46:43.304Z,4.07
2019-05-23T23:52:05.189Z,3.70
2019-05-23T23:57:27.078Z,4.30
